KBAZ

New Braunfels Regional Airport

New Braunfels, Texas, USA
METAR KBAZ 171407Z 21009KT 10SM SCT009 26/23 A3008 RMK AO2 T02610233
Observed Flight Rules
Aug-17 @ 14:07 UTC (50 minutes ago) Visual Flight Rules
Wind Visibility Clouds
210° at 9 knots 10 miles
  • Scattered at 900' AGL
Temperatures Readings
Current 26°C / 79°F
Dewpoint 23°C / 73°F
Humidity 84%
Altimeter 30.08" Hg
Pressure 1019 hPa
Elevation 195
METAR KBAZ 171407Z 21009KT 10SM SCT009 26/23 A3008 RMK AO2 T02610233
Observed Flight Rules
Aug-17 @ 14:07 UTC
(50 minutes ago)
VFR
Wind Visibility
210° at 9 knots 10 miles
Clouds
  • Scattered at 900' AGL
Temperature Dewpoint
26°C / 79°F 23°C / 73°F
Humidity Altimeter Pressure
84% 30.08" Hg 1019 hPa